Ginys del Meteocat

Dades de l'estació automàtica Vallfogona de Balaguer

?
?
Resum diari 23:00 TU
Dades diàries de l'estació meteorològica
Temperatura mitjana 9.2 °C
Temperatura màxima 14.6 °C 14:35 TU
Temperatura mínima 4.5 °C 2:05 TU
Humitat relativa mitjana 78%
Precipitació acumulada 0.0 mm
Ratxa màxima del vent (2 m) 13.7 km/h - 125º 12:34 TU
Irradiació solar global 6.7 MJ/m2

El tram horari està expressat en Temps Universal (TU). Cal sumar una hora en horari d'hivern i dues en horari d'estiu per passar a l'hora oficial.

Vallfogona de Balaguer

Metadades estació meteorol´gica
Municipi Vallfogona de Balaguer
Comarca Noguera
Altitud 238 m
Data alta 17.10.1990
Estat actual Operativa
Dades de període
Període
TU
TM
°C
TX
°C
TN
°C
HRM
%
PPT
mm
VVM (2 m)
km/h
DVM (2 m)
graus
VVX (2 m)
km/h
RS
W/m2
00:00 - 00:30 5.4 5.5 5.3 97 0.0 0.4 352 1.8 0
00:30 - 01:00 5.4 5.5 5.2 96 0.0 2.5 360 6.1 0
01:00 - 01:30 5.3 5.4 5.1 96 0.0 1.8 339 5.0 0
01:30 - 02:00 5.0 5.3 4.8 96 0.0 0.4 354 1.8 0
02:00 - 02:30 4.7 4.9 4.5 97 0.0 1.4 6 4.7 0
02:30 - 03:00 5.2 6.0 4.6 94 0.0 3.6 12 10.4 0
03:00 - 03:30 5.5 5.6 5.4 92 0.0 5.0 14 9.7 0
03:30 - 04:00 5.9 6.3 5.5 90 0.0 4.0 33 9.0 0
04:00 - 04:30 6.3 6.4 6.1 83 0.0 4.3 27 11.5 0
04:30 - 05:00 6.4 6.7 6.1 83 0.0 5.0 33 11.2 0
05:00 - 05:30 6.5 6.7 6.4 83 0.0 4.7 16 10.4 0
05:30 - 06:00 7.1 7.5 6.6 79 0.0 5.0 24 12.6 0
06:00 - 06:30 7.1 7.3 7.0 78 0.0 5.0 25 10.8 0
06:30 - 07:00 7.2 7.4 7.0 78 0.0 4.7 24 10.8 0
07:00 - 07:30 7.3 7.6 7.2 77 0.0 5.0 20 9.4 3
07:30 - 08:00 7.6 7.7 7.5 75 0.0 2.5 27 12.6 26
08:00 - 08:30 7.4 7.6 7.3 79 0.0 0.7 349 4.7 62
08:30 - 09:00 7.7 7.9 7.4 80 0.0 3.2 10 8.6 118
09:00 - 09:30 8.2 8.8 7.8 80 0.0 3.2 352 6.8 149
09:30 - 10:00 9.5 9.8 8.9 73 0.0 4.0 41 10.8 192
10:00 - 10:30 9.8 9.9 9.5 75 0.0 4.3 10 10.4 134
10:30 - 11:00 10.1 10.6 9.5 76 0.0 2.9 12 8.6 145
11:00 - 11:30 11.0 11.5 10.6 72 0.0 2.9 38 9.4 215
11:30 - 12:00 11.6 11.8 11.4 71 0.0 2.5 97 10.1 182
12:00 - 12:30 12.5 13.5 11.6 69 0.0 4.3 104 10.1 437
12:30 - 13:00 13.5 14.4 12.6 67 0.0 4.0 77 13.7 428
13:00 - 13:30 13.4 14.2 12.7 67 0.0 4.0 78 11.5 370
13:30 - 14:00 13.4 14.0 12.8 66 0.0 4.0 72 12.2 279
14:00 - 14:30 14.0 14.5 12.9 65 0.0 3.2 73 10.4 383
14:30 - 15:00 13.7 14.6 13.0 64 0.0 4.0 102 12.6 238
15:00 - 15:30 13.6 14.0 13.1 64 0.0 4.7 86 13.7 229
15:30 - 16:00 12.9 13.4 12.1 65 0.0 3.2 98 11.5 121
16:00 - 16:30 11.7 12.1 11.5 70 0.0 1.4 110 7.9 43
16:30 - 17:00 11.3 11.5 11.3 71 0.0 1.8 64 7.2 15
17:00 - 17:30 11.2 11.4 11.0 72 0.0 3.6 22 8.3 0
17:30 - 18:00 11.0 11.1 10.9 73 0.0 3.6 13 6.8 0
18:00 - 18:30 10.8 10.9 10.6 74 0.0 3.2 26 9.0 0
18:30 - 19:00 10.5 10.6 10.3 76 0.0 2.9 107 7.2 0
19:00 - 19:30 10.1 10.3 10.0 78 0.0 1.8 86 5.8 0
19:30 - 20:00 10.0 10.1 10.0 79 0.0 2.5 67 9.7 0
20:00 - 20:30 10.0 10.0 9.9 79 0.0 2.9 88 13.0 0
20:30 - 21:00 9.9 10.0 9.8 78 0.0 4.0 37 9.0 0
21:00 - 21:30 9.7 9.8 9.6 78 0.0 4.3 21 11.5 0
21:30 - 22:00 9.7 9.7 9.6 76 0.0 4.0 32 10.8 0
22:00 - 22:30 9.6 9.7 9.5 77 0.0 4.3 25 11.5 0
22:30 - 23:00 9.5 9.6 9.4 77 0.0 4.7 24 9.0 0
23:00 - 23:30 9.3 9.5 9.1 78 0.0 4.3 21 9.7 0

Les dades en taronja només han passat un control de qualitat automàtic. Resta pendent la seva validació definitiva.